createdAt,value
2023-04-24T00:00:15.988Z,99387.81
2023-04-24T00:05:19.268Z,99382.34
2023-04-24T00:10:22.773Z,99379.56
2023-04-24T00:15:25.773Z,99362.47
2023-04-24T00:20:33.692Z,99369.94
2023-04-24T00:25:36.504Z,99379.06
2023-04-24T00:30:39.522Z,99372.19
2023-04-24T00:35:42.583Z,99366.31
2023-04-24T00:40:46.056Z,99362.31
2023-04-24T00:45:49.106Z,99366.41
2023-04-24T00:50:52.182Z,99355.41
2023-04-24T00:55:55.304Z,99359.50
2023-04-24T01:00:59.732Z,99362.00
2023-04-24T01:06:03.003Z,99360.78
2023-04-24T01:11:06.588Z,99353.16
2023-04-24T01:16:09.409Z,99360.16
2023-04-24T01:21:19.656Z,99354.59
2023-04-24T01:26:24.788Z,99355.97
2023-04-24T01:31:27.772Z,99343.69
2023-04-24T01:36:33.320Z,99354.72
2023-04-24T01:41:36.329Z,99351.22
2023-04-24T01:46:39.570Z,99337.75
2023-04-24T01:51:42.717Z,99333.88
2023-04-24T01:56:47.732Z,99331.06
2023-04-24T02:01:50.699Z,99320.88
2023-04-24T02:06:53.876Z,99308.78
2023-04-24T02:11:57.488Z,99294.44
2023-04-24T02:17:00.257Z,99299.09
2023-04-24T02:22:03.184Z,99297.03
2023-04-24T02:27:06.384Z,99292.88
2023-04-24T02:32:13.340Z,99291.63
2023-04-24T02:37:16.585Z,99276.88
2023-04-24T02:42:19.703Z,99270.28
2023-04-24T02:47:22.452Z,99266.25
2023-04-24T02:52:25.544Z,99252.53
2023-04-24T02:57:28.501Z,99253.00
2023-04-24T03:02:31.562Z,99253.59
2023-04-24T03:07:34.983Z,99249.09
2023-04-24T03:12:37.879Z,99258.16
2023-04-24T03:17:40.891Z,99256.75
2023-04-24T03:22:43.735Z,99265.75
2023-04-24T03:27:47.236Z,99252.81
2023-04-24T03:32:50.301Z,99247.34
2023-04-24T03:37:53.226Z,99254.28
2023-04-24T03:42:56.293Z,99245.66
2023-04-24T03:47:59.435Z,99236.50
2023-04-24T03:53:02.446Z,99244.88
2023-04-24T03:58:06.982Z,99240.22
2023-04-24T04:03:10.167Z,99239.38
2023-04-24T04:08:13.323Z,99245.53
2023-04-24T04:13:16.390Z,99251.25
2023-04-24T04:18:19.397Z,99248.03
2023-04-24T04:23:22.348Z,99245.34
2023-04-24T04:28:28.178Z,99243.97
2023-04-24T04:33:32.029Z,99232.09
2023-04-24T04:38:36.073Z,99230.91
2023-04-24T04:43:40.749Z,99243.19
2023-04-24T04:48:44.149Z,99240.13
2023-04-24T04:53:47.152Z,99236.88
2023-04-24T04:58:50.560Z,99236.91
2023-04-24T05:03:53.618Z,99235.06
2023-04-24T05:08:58.327Z,99227.31
2023-04-24T05:14:01.434Z,99225.50
2023-04-24T05:19:04.377Z,99228.84
2023-04-24T05:24:08.005Z,99223.97
2023-04-24T05:29:10.901Z,99228.06
2023-04-24T05:34:13.866Z,99235.66
2023-04-24T05:39:16.807Z,99235.09
2023-04-24T05:44:19.897Z,99226.66
2023-04-24T05:49:23.447Z,99248.41
2023-04-24T05:54:26.444Z,99225.88
2023-04-24T05:59:29.900Z,99229.16
2023-04-24T06:04:34.188Z,99227.69
2023-04-24T06:09:37.763Z,99232.84
2023-04-24T06:14:40.889Z,99235.69
2023-04-24T06:19:43.789Z,99240.03
2023-04-24T06:24:48.340Z,99235.28
2023-04-24T06:29:55.308Z,99226.06
2023-04-24T06:34:59.507Z,99225.22
2023-04-24T06:40:02.714Z,99232.00
2023-04-24T06:45:06.328Z,99223.75
2023-04-24T06:50:10.134Z,99220.47
2023-04-24T06:55:13.132Z,99224.75
2023-04-24T07:00:16.574Z,99225.00
2023-04-24T07:05:21.013Z,99229.03
2023-04-24T07:10:24.253Z,99233.28
2023-04-24T07:15:27.619Z,99228.50
2023-04-24T07:20:30.692Z,99220.88
2023-04-24T07:25:34.065Z,99214.47
2023-04-24T07:30:37.114Z,99215.19
2023-04-24T07:35:40.070Z,99211.38
2023-04-24T07:40:43.231Z,99209.78
2023-04-24T07:45:46.411Z,99208.16
2023-04-24T07:50:49.604Z,99201.44
2023-04-24T07:55:52.635Z,99198.31
2023-04-24T08:00:56.120Z,99189.31
2023-04-24T08:05:59.331Z,99200.41
2023-04-24T08:11:02.336Z,99200.19
2023-04-24T08:16:05.685Z,99188.28
2023-04-24T08:21:08.841Z,99186.78
2023-04-24T08:26:12.323Z,99184.59
2023-04-24T08:31:15.621Z,99181.84
2023-04-24T08:36:18.637Z,99180.72
2023-04-24T08:41:22.413Z,99189.84
2023-04-24T08:46:26.396Z,99178.31
2023-04-24T08:51:31.559Z,99170.50
2023-04-24T08:56:38.941Z,99179.53
2023-04-24T09:01:43.077Z,99175.03
2023-04-24T09:06:46.076Z,99165.53
2023-04-24T09:11:51.797Z,99147.34
2023-04-24T09:16:55.031Z,99159.50
2023-04-24T09:21:58.079Z,99161.91
2023-04-24T09:27:02.517Z,99160.97
2023-04-24T09:32:26.912Z,99158.81
2023-04-24T09:37:31.158Z,99152.28
2023-04-24T09:42:34.287Z,99141.16
2023-04-24T09:47:41.327Z,99141.00
2023-04-24T09:53:06.575Z,99122.94
2023-04-24T09:58:10.356Z,99133.59
2023-04-24T10:03:14.038Z,99129.41
2023-04-24T10:08:17.144Z,99117.28
2023-04-24T10:13:20.663Z,99121.00
2023-04-24T10:18:25.275Z,99119.41
2023-04-24T10:23:29.539Z,99111.44
2023-04-24T10:28:35.160Z,99103.59
2023-04-24T10:33:39.437Z,99097.06
2023-04-24T10:38:47.261Z,99096.47
2023-04-24T10:44:10.849Z,99094.09
2023-04-24T10:49:17.035Z,99082.78
2023-04-24T10:54:48.475Z,99090.84
2023-04-24T11:00:13.540Z,99095.53
2023-04-24T11:05:18.688Z,99101.16
2023-04-24T11:10:28.440Z,99092.78
2023-04-24T11:15:31.572Z,99086.19
2023-04-24T11:20:34.657Z,99100.72
2023-04-24T11:25:37.655Z,99094.13
2023-04-24T11:30:41.426Z,99090.31
2023-04-24T11:35:44.538Z,99102.34
2023-04-24T11:40:50.182Z,99091.44
2023-04-24T11:45:53.292Z,99099.44
2023-04-24T11:50:56.761Z,99092.09
2023-04-24T11:56:05.476Z,99094.69
2023-04-24T12:01:08.478Z,99094.03
2023-04-24T12:06:13.190Z,99083.34
2023-04-24T12:11:19.005Z,99073.56
2023-04-24T12:16:22.287Z,99075.59
2023-04-24T12:21:27.666Z,99068.34
2023-04-24T12:26:30.990Z,99058.72
2023-04-24T12:31:34.251Z,99058.88
2023-04-24T12:36:37.325Z,99048.53
2023-04-24T12:42:00.407Z,99050.16
2023-04-24T12:47:03.653Z,99037.91
2023-04-24T12:52:06.651Z,99030.19
2023-04-24T12:57:09.658Z,99022.47
2023-04-24T13:02:13.059Z,99019.31
2023-04-24T13:07:16.496Z,99012.19
2023-04-24T13:12:19.558Z,98996.03
2023-04-24T13:17:23.489Z,98989.28
2023-04-24T13:22:26.536Z,98980.47
2023-04-24T13:27:29.511Z,98976.25
2023-04-24T13:32:34.425Z,98973.81
2023-04-24T13:37:37.555Z,98973.72
2023-04-24T13:42:41.170Z,98973.97
2023-04-24T13:47:44.144Z,98970.56
2023-04-24T13:52:47.242Z,98977.09
2023-04-24T13:57:50.561Z,98971.50
2023-04-24T14:02:53.686Z,98978.31
2023-04-24T14:07:57.291Z,98970.69
2023-04-24T14:13:00.385Z,98973.94
2023-04-24T14:18:05.742Z,98990.19
2023-04-24T14:23:09.528Z,98993.13
2023-04-24T14:28:12.555Z,99002.00
2023-04-24T14:33:16.193Z,98999.91
2023-04-24T14:38:19.133Z,99012.28
2023-04-24T14:43:22.173Z,99004.09
2023-04-24T14:48:25.773Z,99012.88
2023-04-24T14:53:28.841Z,99021.59
2023-04-24T14:58:31.889Z,99023.19
2023-04-24T15:03:35.134Z,99023.50
2023-04-24T15:08:38.275Z,99021.16
2023-04-24T15:13:41.274Z,99018.78
2023-04-24T15:18:44.365Z,99027.88
2023-04-24T15:23:47.616Z,99024.69
2023-04-24T15:28:51.478Z,99023.81
2023-04-24T15:33:54.465Z,99024.56
2023-04-24T15:38:57.798Z,99023.97
2023-04-24T15:44:01.110Z,99034.81
2023-04-24T15:49:04.266Z,99023.69
2023-04-24T15:54:08.403Z,99037.47
2023-04-24T15:59:11.488Z,99032.44
2023-04-24T16:04:14.796Z,99028.81
2023-04-24T16:09:18.422Z,99038.03
2023-04-24T16:14:21.419Z,99031.56
2023-04-24T16:19:24.682Z,99025.88
2023-04-24T16:24:29.605Z,99032.75
2023-04-24T16:29:32.793Z,99028.75
2023-04-24T16:34:35.779Z,99026.56
2023-04-24T16:39:39.004Z,99033.16
2023-04-24T16:44:43.139Z,99026.84
2023-04-24T16:49:46.265Z,99023.41
2023-04-24T16:54:49.285Z,99026.97
2023-04-24T16:59:52.299Z,99034.81
2023-04-24T17:04:55.570Z,99034.84
2023-04-24T17:09:58.618Z,99045.34
2023-04-24T17:15:01.688Z,99052.75
2023-04-24T17:20:18.586Z,99048.09
2023-04-24T17:25:25.128Z,99051.00
2023-04-24T17:30:28.105Z,99055.38
2023-04-24T17:35:31.144Z,99059.94
2023-04-24T17:40:34.490Z,99058.56
2023-04-24T17:45:37.757Z,99062.50
2023-04-24T17:50:41.076Z,99071.13
2023-04-24T17:55:44.531Z,99069.75
2023-04-24T18:00:47.499Z,99083.50
2023-04-24T18:05:50.864Z,99079.44
2023-04-24T18:10:54.764Z,99079.84
2023-04-24T18:15:57.784Z,99090.13
2023-04-24T18:21:01.042Z,99090.13
2023-04-24T18:26:04.247Z,99094.66
2023-04-24T18:31:08.667Z,99096.31
2023-04-24T18:36:11.552Z,99102.69
2023-04-24T18:41:14.816Z,99116.22
2023-04-24T18:46:18.317Z,99116.22
2023-04-24T18:51:21.197Z,99118.47
2023-04-24T18:56:24.167Z,99125.63
2023-04-24T19:01:27.471Z,99122.56
2023-04-24T19:06:31.932Z,99125.84
2023-04-24T19:11:35.031Z,99129.13
2023-04-24T19:16:38.071Z,99132.00
2023-04-24T19:21:41.300Z,99132.41
2023-04-24T19:26:45.371Z,99128.31
2023-04-24T19:31:48.399Z,99133.81
2023-04-24T19:36:51.520Z,99126.66
2023-04-24T19:41:57.142Z,99129.13
2023-04-24T19:47:00.424Z,99119.50
2023-04-24T19:52:03.390Z,99124.19
2023-04-24T19:57:06.741Z,99116.84
2023-04-24T20:02:11.601Z,99113.16
2023-04-24T20:07:14.695Z,99106.78
2023-04-24T20:12:19.544Z,99104.53
2023-04-24T20:17:22.530Z,99110.66
2023-04-24T20:22:25.585Z,99115.38
2023-04-24T20:27:30.283Z,99113.53
2023-04-24T20:32:33.395Z,99114.56
2023-04-24T20:37:36.937Z,99118.06
2023-04-24T20:42:40.246Z,99108.84
2023-04-24T20:47:43.132Z,99105.75
2023-04-24T20:52:46.652Z,99108.22
2023-04-24T20:57:49.678Z,99104.94
2023-04-24T21:02:52.792Z,99105.75
2023-04-24T21:07:56.289Z,99104.34
2023-04-24T21:12:59.354Z,99108.00
2023-04-24T21:18:03.390Z,99098.59
2023-04-24T21:23:06.386Z,99105.56
2023-04-24T21:28:09.282Z,99097.56
2023-04-24T21:33:12.690Z,99099.00
2023-04-24T21:38:15.768Z,99099.41
2023-04-24T21:43:20.600Z,99091.84
2023-04-24T21:48:26.437Z,99100.44
2023-04-24T21:53:29.829Z,99094.09
2023-04-24T21:58:32.836Z,99091.81
2023-04-24T22:03:36.012Z,99087.13
2023-04-24T22:08:39.174Z,99086.69
2023-04-24T22:13:42.865Z,99081.59
2023-04-24T22:18:47.702Z,99079.94
2023-04-24T22:23:51.711Z,99075.22
2023-04-24T22:28:54.939Z,99071.50
2023-04-24T22:33:57.957Z,99070.25
2023-04-24T22:39:00.874Z,99073.34
2023-04-24T22:44:04.139Z,99070.69
2023-04-24T22:49:07.390Z,99061.44
2023-04-24T22:54:10.997Z,99040.97
2023-04-24T22:59:13.968Z,99037.69
2023-04-24T23:04:16.981Z,99049.75
2023-04-24T23:09:20.095Z,99049.31
2023-04-24T23:14:24.662Z,99050.34
2023-04-24T23:19:27.830Z,99059.75
2023-04-24T23:24:30.897Z,99061.81
2023-04-24T23:29:33.997Z,99057.75
2023-04-24T23:34:39.406Z,99052.84
2023-04-24T23:39:42.258Z,99046.09
2023-04-24T23:44:45.408Z,99042.41
2023-04-24T23:49:48.334Z,99035.44
2023-04-24T23:54:51.320Z,99040.75
2023-04-24T23:59:54.419Z,99024.59
